sensor_id;sensor_type;location;lat;lon;timestamp;P1;durP1;ratioP1;P2;durP2;ratioP2
22622;SDS011;11478;51.094;7.030;2022-09-29T00:01:17;19.48;;;14.35;;
22622;SDS011;11478;51.094;7.030;2022-09-29T00:03:43;23.75;;;15.93;;
22622;SDS011;11478;51.094;7.030;2022-09-29T00:06:13;22.40;;;14.35;;
22622;SDS011;11478;51.094;7.030;2022-09-29T00:11:12;24.27;;;14.02;;
22622;SDS011;11478;51.094;7.030;2022-09-29T00:13:40;25.55;;;15.48;;
22622;SDS011;11478;51.094;7.030;2022-09-29T00:16:06;22.92;;;15.20;;
22622;SDS011;11478;51.094;7.030;2022-09-29T00:18:33;20.48;;;13.95;;
22622;SDS011;11478;51.094;7.030;2022-09-29T00:21:05;23.55;;;14.05;;
22622;SDS011;11478;51.094;7.030;2022-09-29T00:23:33;20.63;;;13.77;;
22622;SDS011;11478;51.094;7.030;2022-09-29T00:26:04;17.75;;;13.68;;
22622;SDS011;11478;51.094;7.030;2022-09-29T00:28:53;20.48;;;14.68;;
22622;SDS011;11478;51.094;7.030;2022-09-29T00:31:31;20.50;;;13.50;;
22622;SDS011;11478;51.094;7.030;2022-09-29T00:33:57;20.98;;;13.77;;
22622;SDS011;11478;51.094;7.030;2022-09-29T00:36:25;18.20;;;13.02;;
22622;SDS011;11478;51.094;7.030;2022-09-29T00:38:55;17.52;;;13.45;;
22622;SDS011;11478;51.094;7.030;2022-09-29T00:41:27;18.52;;;12.60;;
22622;SDS011;11478;51.094;7.030;2022-09-29T00:43:59;14.32;;;12.13;;
22622;SDS011;11478;51.094;7.030;2022-09-29T00:46:57;22.23;;;12.25;;
22622;SDS011;11478;51.094;7.030;2022-09-29T00:54:47;18.13;;;12.43;;
22622;SDS011;11478;51.094;7.030;2022-09-29T00:57:17;23.20;;;13.93;;
22622;SDS011;11478;51.094;7.030;2022-09-29T00:59:54;18.25;;;12.02;;
22622;SDS011;11478;51.094;7.030;2022-09-29T01:02:27;23.05;;;12.95;;
22622;SDS011;11478;51.094;7.030;2022-09-29T01:07:30;19.05;;;12.95;;
22622;SDS011;11478;51.094;7.030;2022-09-29T01:10:01;19.27;;;12.18;;
22622;SDS011;11478;51.094;7.030;2022-09-29T01:12:26;18.02;;;12.25;;
22622;SDS011;11478;51.094;7.030;2022-09-29T01:14:52;17.95;;;12.02;;
22622;SDS011;11478;51.094;7.030;2022-09-29T01:17:19;15.60;;;11.48;;
22622;SDS011;11478;51.094;7.030;2022-09-29T01:37:50;19.35;;;10.98;;
22622;SDS011;11478;51.094;7.030;2022-09-29T01:40:38;14.88;;;11.65;;
22622;SDS011;11478;51.094;7.030;2022-09-29T01:43:16;21.55;;;12.93;;
22622;SDS011;11478;51.094;7.030;2022-09-29T01:48:49;20.00;;;11.43;;
22622;SDS011;11478;51.094;7.030;2022-09-29T01:51:20;17.48;;;11.18;;
22622;SDS011;11478;51.094;7.030;2022-09-29T01:54:10;15.50;;;11.25;;
22622;SDS011;11478;51.094;7.030;2022-09-29T01:56:44;19.55;;;12.00;;
22622;SDS011;11478;51.094;7.030;2022-09-29T01:59:18;17.40;;;11.93;;
22622;SDS011;11478;51.094;7.030;2022-09-29T02:01:50;15.73;;;12.10;;
22622;SDS011;11478;51.094;7.030;2022-09-29T02:04:27;21.38;;;12.80;;
22622;SDS011;11478;51.094;7.030;2022-09-29T02:07:11;20.17;;;13.48;;
22622;SDS011;11478;51.094;7.030;2022-09-29T02:09:54;16.90;;;12.73;;
22622;SDS011;11478;51.094;7.030;2022-09-29T02:12:32;18.70;;;12.98;;
22622;SDS011;11478;51.094;7.030;2022-09-29T02:17:38;24.55;;;13.35;;
22622;SDS011;11478;51.094;7.030;2022-09-29T02:20:12;17.67;;;12.50;;
22622;SDS011;11478;51.094;7.030;2022-09-29T02:22:39;19.38;;;12.50;;
22622;SDS011;11478;51.094;7.030;2022-09-29T02:25:09;25.02;;;13.45;;
22622;SDS011;11478;51.094;7.030;2022-09-29T02:27:37;17.38;;;12.75;;
22622;SDS011;11478;51.094;7.030;2022-09-29T02:32:34;16.27;;;12.50;;
22622;SDS011;11478;51.094;7.030;2022-09-29T02:40:21;16.52;;;12.93;;
22622;SDS011;11478;51.094;7.030;2022-09-29T02:51:48;20.83;;;13.17;;
22622;SDS011;11478;51.094;7.030;2022-09-29T03:00:09;16.67;;;11.93;;
22622;SDS011;11478;51.094;7.030;2022-09-29T03:02:37;17.38;;;12.30;;
22622;SDS011;11478;51.094;7.030;2022-09-29T03:05:10;17.15;;;12.48;;
22622;SDS011;11478;51.094;7.030;2022-09-29T03:07:38;25.47;;;13.07;;
22622;SDS011;11478;51.094;7.030;2022-09-29T03:10:06;25.98;;;12.73;;
22622;SDS011;11478;51.094;7.030;2022-09-29T03:12:33;23.90;;;15.07;;
22622;SDS011;11478;51.094;7.030;2022-09-29T03:14:59;18.70;;;13.10;;
22622;SDS011;11478;51.094;7.030;2022-09-29T03:17:25;19.40;;;13.60;;
22622;SDS011;11478;51.094;7.030;2022-09-29T03:19:51;19.45;;;12.70;;
22622;SDS011;11478;51.094;7.030;2022-09-29T03:22:18;19.80;;;12.88;;
22622;SDS011;11478;51.094;7.030;2022-09-29T03:24:44;33.08;;;13.93;;
22622;SDS011;11478;51.094;7.030;2022-09-29T03:27:10;20.45;;;13.50;;
22622;SDS011;11478;51.094;7.030;2022-09-29T03:29:36;26.25;;;14.02;;
22622;SDS011;11478;51.094;7.030;2022-09-29T03:32:03;27.58;;;13.27;;
22622;SDS011;11478;51.094;7.030;2022-09-29T03:34:30;15.18;;;12.60;;
22622;SDS011;11478;51.094;7.030;2022-09-29T03:36:56;46.90;;;15.82;;
22622;SDS011;11478;51.094;7.030;2022-09-29T03:39:22;27.17;;;14.88;;
22622;SDS011;11478;51.094;7.030;2022-09-29T03:41:56;21.73;;;13.90;;
22622;SDS011;11478;51.094;7.030;2022-09-29T03:44:22;20.08;;;13.98;;
22622;SDS011;11478;51.094;7.030;2022-09-29T03:46:48;16.90;;;12.77;;
22622;SDS011;11478;51.094;7.030;2022-09-29T03:49:14;21.80;;;13.93;;
22622;SDS011;11478;51.094;7.030;2022-09-29T03:51:40;21.45;;;14.05;;
22622;SDS011;11478;51.094;7.030;2022-09-29T03:54:06;17.40;;;13.10;;
22622;SDS011;11478;51.094;7.030;2022-09-29T03:56:35;22.02;;;13.40;;
22622;SDS011;11478;51.094;7.030;2022-09-29T03:59:01;21.55;;;13.98;;
22622;SDS011;11478;51.094;7.030;2022-09-29T04:03:59;19.52;;;13.10;;
22622;SDS011;11478;51.094;7.030;2022-09-29T04:06:26;21.95;;;13.65;;
22622;SDS011;11478;51.094;7.030;2022-09-29T04:08:52;20.63;;;14.18;;
22622;SDS011;11478;51.094;7.030;2022-09-29T04:11:18;23.52;;;14.30;;
22622;SDS011;11478;51.094;7.030;2022-09-29T04:13:44;29.08;;;14.32;;
22622;SDS011;11478;51.094;7.030;2022-09-29T04:16:11;23.65;;;14.75;;
22622;SDS011;11478;51.094;7.030;2022-09-29T04:18:37;21.38;;;13.57;;
22622;SDS011;11478;51.094;7.030;2022-09-29T04:21:06;22.13;;;13.52;;
22622;SDS011;11478;51.094;7.030;2022-09-29T04:23:33;24.10;;;14.90;;
22622;SDS011;11478;51.094;7.030;2022-09-29T04:26:00;25.13;;;14.45;;
22622;SDS011;11478;51.094;7.030;2022-09-29T04:28:26;35.92;;;16.08;;
22622;SDS011;11478;51.094;7.030;2022-09-29T04:30:52;27.13;;;15.50;;
22622;SDS011;11478;51.094;7.030;2022-09-29T04:33:18;26.98;;;15.38;;
22622;SDS011;11478;51.094;7.030;2022-09-29T04:35:44;49.53;;;16.83;;
22622;SDS011;11478;51.094;7.030;2022-09-29T04:38:22;29.88;;;15.35;;
22622;SDS011;11478;51.094;7.030;2022-09-29T04:40:48;20.90;;;15.25;;
22622;SDS011;11478;51.094;7.030;2022-09-29T04:43:14;26.15;;;15.45;;
22622;SDS011;11478;51.094;7.030;2022-09-29T04:45:40;25.15;;;15.23;;
22622;SDS011;11478;51.094;7.030;2022-09-29T04:48:12;25.10;;;15.10;;
22622;SDS011;11478;51.094;7.030;2022-09-29T04:50:39;26.93;;;14.80;;
22622;SDS011;11478;51.094;7.030;2022-09-29T04:53:06;25.10;;;15.38;;
22622;SDS011;11478;51.094;7.030;2022-09-29T04:55:32;26.75;;;15.50;;
22622;SDS011;11478;51.094;7.030;2022-09-29T04:58:00;26.05;;;16.42;;
22622;SDS011;11478;51.094;7.030;2022-09-29T05:00:26;26.10;;;15.73;;
22622;SDS011;11478;51.094;7.030;2022-09-29T05:02:54;23.98;;;15.65;;
22622;SDS011;11478;51.094;7.030;2022-09-29T05:05:20;32.55;;;15.95;;
22622;SDS011;11478;51.094;7.030;2022-09-29T05:07:46;23.42;;;15.88;;
22622;SDS011;11478;51.094;7.030;2022-09-29T05:10:12;24.52;;;16.08;;
22622;SDS011;11478;51.094;7.030;2022-09-29T05:12:40;24.67;;;15.48;;
22622;SDS011;11478;51.094;7.030;2022-09-29T05:15:11;26.17;;;15.40;;
22622;SDS011;11478;51.094;7.030;2022-09-29T05:17:37;21.98;;;15.50;;
22622;SDS011;11478;51.094;7.030;2022-09-29T05:20:02;32.25;;;17.08;;
22622;SDS011;11478;51.094;7.030;2022-09-29T05:22:28;26.13;;;15.45;;
22622;SDS011;11478;51.094;7.030;2022-09-29T05:24:56;23.77;;;15.25;;
22622;SDS011;11478;51.094;7.030;2022-09-29T05:27:22;20.15;;;14.98;;
22622;SDS011;11478;51.094;7.030;2022-09-29T05:29:48;25.15;;;15.65;;
22622;SDS011;11478;51.094;7.030;2022-09-29T05:32:13;27.55;;;16.35;;
22622;SDS011;11478;51.094;7.030;2022-09-29T05:34:39;23.90;;;15.32;;
22622;SDS011;11478;51.094;7.030;2022-09-29T05:37:05;25.50;;;15.40;;
22622;SDS011;11478;51.094;7.030;2022-09-29T05:39:33;30.30;;;16.50;;
22622;SDS011;11478;51.094;7.030;2022-09-29T05:42:01;25.58;;;15.70;;
22622;SDS011;11478;51.094;7.030;2022-09-29T05:44:33;22.08;;;15.27;;
22622;SDS011;11478;51.094;7.030;2022-09-29T05:46:59;126.30;;;18.52;;
22622;SDS011;11478;51.094;7.030;2022-09-29T05:49:28;25.35;;;17.05;;
22622;SDS011;11478;51.094;7.030;2022-09-29T05:51:56;30.30;;;16.35;;
22622;SDS011;11478;51.094;7.030;2022-09-29T05:54:23;24.90;;;16.05;;
22622;SDS011;11478;51.094;7.030;2022-09-29T05:56:49;24.13;;;16.58;;
22622;SDS011;11478;51.094;7.030;2022-09-29T05:59:16;35.35;;;16.25;;
22622;SDS011;11478;51.094;7.030;2022-09-29T06:01:41;27.77;;;15.55;;
22622;SDS011;11478;51.094;7.030;2022-09-29T06:04:17;34.95;;;16.48;;
22622;SDS011;11478;51.094;7.030;2022-09-29T06:06:42;33.45;;;15.60;;
22622;SDS011;11478;51.094;7.030;2022-09-29T06:09:08;27.10;;;16.15;;
22622;SDS011;11478;51.094;7.030;2022-09-29T06:11:34;23.35;;;15.60;;
22622;SDS011;11478;51.094;7.030;2022-09-29T06:14:02;30.77;;;16.80;;
22622;SDS011;11478;51.094;7.030;2022-09-29T06:16:28;44.90;;;17.50;;
22622;SDS011;11478;51.094;7.030;2022-09-29T06:18:57;29.50;;;16.55;;
22622;SDS011;11478;51.094;7.030;2022-09-29T06:21:28;29.23;;;17.90;;
22622;SDS011;11478;51.094;7.030;2022-09-29T06:23:55;30.90;;;17.20;;
22622;SDS011;11478;51.094;7.030;2022-09-29T06:26:26;29.80;;;18.60;;
22622;SDS011;11478;51.094;7.030;2022-09-29T06:28:53;63.65;;;18.55;;
22622;SDS011;11478;51.094;7.030;2022-09-29T06:31:22;30.08;;;17.45;;
22622;SDS011;11478;51.094;7.030;2022-09-29T06:33:50;38.15;;;19.15;;
22622;SDS011;11478;51.094;7.030;2022-09-29T06:39:28;29.13;;;18.23;;
22622;SDS011;11478;51.094;7.030;2022-09-29T06:41:54;25.95;;;17.80;;
22622;SDS011;11478;51.094;7.030;2022-09-29T06:44:21;26.58;;;18.15;;
22622;SDS011;11478;51.094;7.030;2022-09-29T06:46:50;29.40;;;17.95;;
22622;SDS011;11478;51.094;7.030;2022-09-29T06:49:17;29.08;;;17.13;;
22622;SDS011;11478;51.094;7.030;2022-09-29T06:51:43;24.92;;;16.73;;
22622;SDS011;11478;51.094;7.030;2022-09-29T06:54:10;27.50;;;17.10;;
22622;SDS011;11478;51.094;7.030;2022-09-29T06:56:48;26.65;;;16.77;;
22622;SDS011;11478;51.094;7.030;2022-09-29T06:59:18;26.73;;;17.27;;
22622;SDS011;11478;51.094;7.030;2022-09-29T07:01:44;24.98;;;16.38;;
22622;SDS011;11478;51.094;7.030;2022-09-29T07:04:16;24.80;;;17.27;;
22622;SDS011;11478;51.094;7.030;2022-09-29T07:06:43;25.17;;;17.17;;
22622;SDS011;11478;51.094;7.030;2022-09-29T07:09:17;29.05;;;17.27;;
22622;SDS011;11478;51.094;7.030;2022-09-29T07:11:43;22.67;;;16.00;;
22622;SDS011;11478;51.094;7.030;2022-09-29T07:14:12;23.42;;;15.55;;
22622;SDS011;11478;51.094;7.030;2022-09-29T07:16:39;19.98;;;15.02;;
22622;SDS011;11478;51.094;7.030;2022-09-29T07:19:05;22.83;;;15.30;;
22622;SDS011;11478;51.094;7.030;2022-09-29T07:21:32;22.17;;;15.88;;
22622;SDS011;11478;51.094;7.030;2022-09-29T07:23:57;22.08;;;15.40;;
22622;SDS011;11478;51.094;7.030;2022-09-29T07:26:25;19.40;;;14.45;;
22622;SDS011;11478;51.094;7.030;2022-09-29T07:28:52;20.45;;;13.50;;
22622;SDS011;11478;51.094;7.030;2022-09-29T07:33:48;17.85;;;13.50;;
22622;SDS011;11478;51.094;7.030;2022-09-29T07:36:15;18.95;;;12.60;;
22622;SDS011;11478;51.094;7.030;2022-09-29T07:38:46;16.85;;;11.95;;
22622;SDS011;11478;51.094;7.030;2022-09-29T07:41:14;13.10;;;11.10;;
22622;SDS011;11478;51.094;7.030;2022-09-29T07:43:41;15.95;;;10.40;;
22622;SDS011;11478;51.094;7.030;2022-09-29T07:46:07;14.35;;;9.48;;
22622;SDS011;11478;51.094;7.030;2022-09-29T07:48:33;15.10;;;10.52;;
22622;SDS011;11478;51.094;7.030;2022-09-29T07:51:02;13.68;;;10.38;;
22622;SDS011;11478;51.094;7.030;2022-09-29T07:53:33;14.70;;;10.57;;
22622;SDS011;11478;51.094;7.030;2022-09-29T07:56:04;12.07;;;10.38;;
22622;SDS011;11478;51.094;7.030;2022-09-29T07:58:33;13.80;;;10.52;;
22622;SDS011;11478;51.094;7.030;2022-09-29T08:01:00;13.77;;;10.68;;
22622;SDS011;11478;51.094;7.030;2022-09-29T08:03:31;11.60;;;10.40;;
22622;SDS011;11478;51.094;7.030;2022-09-29T08:05:57;12.77;;;9.88;;
22622;SDS011;11478;51.094;7.030;2022-09-29T08:08:24;9.82;;;8.13;;
22622;SDS011;11478;51.094;7.030;2022-09-29T08:10:50;12.57;;;6.72;;
22622;SDS011;11478;51.094;7.030;2022-09-29T08:13:16;7.72;;;6.13;;
22622;SDS011;11478;51.094;7.030;2022-09-29T08:15:42;9.70;;;6.43;;
22622;SDS011;11478;51.094;7.030;2022-09-29T08:18:11;10.63;;;5.90;;
22622;SDS011;11478;51.094;7.030;2022-09-29T08:20:38;7.63;;;5.80;;
22622;SDS011;11478;51.094;7.030;2022-09-29T08:23:04;8.35;;;5.90;;
22622;SDS011;11478;51.094;7.030;2022-09-29T08:25:32;5.82;;;5.18;;
22622;SDS011;11478;51.094;7.030;2022-09-29T08:28:02;7.70;;;5.32;;
22622;SDS011;11478;51.094;7.030;2022-09-29T08:30:30;8.48;;;5.40;;
22622;SDS011;11478;51.094;7.030;2022-09-29T08:32:56;7.03;;;5.50;;
22622;SDS011;11478;51.094;7.030;2022-09-29T08:35:22;8.00;;;5.65;;
22622;SDS011;11478;51.094;7.030;2022-09-29T08:37:49;10.75;;;7.10;;
22622;SDS011;11478;51.094;7.030;2022-09-29T08:40:16;6.85;;;6.15;;
22622;SDS011;11478;51.094;7.030;2022-09-29T08:45:28;7.28;;;6.20;;
22622;SDS011;11478;51.094;7.030;2022-09-29T08:48:11;9.85;;;6.30;;
22622;SDS011;11478;51.094;7.030;2022-09-29T08:51:20;9.68;;;6.80;;
22622;SDS011;11478;51.094;7.030;2022-09-29T08:53:46;7.70;;;7.00;;
22622;SDS011;11478;51.094;7.030;2022-09-29T08:56:15;10.25;;;7.18;;
22622;SDS011;11478;51.094;7.030;2022-09-29T08:58:44;9.93;;;7.05;;
22622;SDS011;11478;51.094;7.030;2022-09-29T09:22:55;8.98;;;7.03;;
22622;SDS011;11478;51.094;7.030;2022-09-29T09:25:31;9.85;;;6.57;;
22622;SDS011;11478;51.094;7.030;2022-09-29T09:28:05;10.05;;;7.10;;
22622;SDS011;11478;51.094;7.030;2022-09-29T09:30:38;7.78;;;5.40;;
22622;SDS011;11478;51.094;7.030;2022-09-29T09:33:36;6.53;;;5.93;;
22622;SDS011;11478;51.094;7.030;2022-09-29T09:36:13;9.50;;;6.30;;
22622;SDS011;11478;51.094;7.030;2022-09-29T09:38:52;9.32;;;7.20;;
22622;SDS011;11478;51.094;7.030;2022-09-29T09:41:23;9.25;;;7.30;;
22622;SDS011;11478;51.094;7.030;2022-09-29T09:44:15;10.13;;;8.07;;
22622;SDS011;11478;51.094;7.030;2022-09-29T09:47:22;11.05;;;9.23;;
22622;SDS011;11478;51.094;7.030;2022-09-29T09:50:22;11.63;;;9.63;;
22622;SDS011;11478;51.094;7.030;2022-09-29T10:01:16;15.10;;;12.13;;
22622;SDS011;11478;51.094;7.030;2022-09-29T10:03:51;11.85;;;10.20;;
22622;SDS011;11478;51.094;7.030;2022-09-29T10:06:17;13.07;;;9.63;;
22622;SDS011;11478;51.094;7.030;2022-09-29T10:08:43;12.13;;;10.52;;
22622;SDS011;11478;51.094;7.030;2022-09-29T10:11:15;12.98;;;9.90;;
22622;SDS011;11478;51.094;7.030;2022-09-29T10:14:00;14.38;;;10.07;;
22622;SDS011;11478;51.094;7.030;2022-09-29T10:17:11;15.07;;;9.32;;
22622;SDS011;11478;51.094;7.030;2022-09-29T10:19:21;12.60;;;9.05;;
22622;SDS011;11478;51.094;7.030;2022-09-29T10:22:13;16.33;;;9.68;;
22622;SDS011;11478;51.094;7.030;2022-09-29T10:24:46;15.02;;;9.60;;
22622;SDS011;11478;51.094;7.030;2022-09-29T10:27:16;13.63;;;8.77;;
22622;SDS011;11478;51.094;7.030;2022-09-29T10:29:45;11.30;;;9.27;;
22622;SDS011;11478;51.094;7.030;2022-09-29T10:32:33;13.73;;;9.68;;
22622;SDS011;11478;51.094;7.030;2022-09-29T10:37:42;10.50;;;8.80;;
22622;SDS011;11478;51.094;7.030;2022-09-29T10:42:43;11.73;;;7.90;;
22622;SDS011;11478;51.094;7.030;2022-09-29T10:45:18;13.85;;;8.73;;
22622;SDS011;11478;51.094;7.030;2022-09-29T10:50:28;10.57;;;8.75;;
22622;SDS011;11478;51.094;7.030;2022-09-29T10:53:05;10.75;;;8.43;;
22622;SDS011;11478;51.094;7.030;2022-09-29T10:55:47;14.35;;;7.97;;
22622;SDS011;11478;51.094;7.030;2022-09-29T10:58:23;13.23;;;8.67;;
22622;SDS011;11478;51.094;7.030;2022-09-29T11:01:14;9.55;;;7.40;;
22622;SDS011;11478;51.094;7.030;2022-09-29T11:06:29;9.68;;;6.45;;
22622;SDS011;11478;51.094;7.030;2022-09-29T11:09:00;10.23;;;7.30;;
22622;SDS011;11478;51.094;7.030;2022-09-29T11:11:53;8.15;;;6.35;;
22622;SDS011;11478;51.094;7.030;2022-09-29T11:14:43;8.10;;;6.47;;
22622;SDS011;11478;51.094;7.030;2022-09-29T11:22:31;8.23;;;5.90;;
22622;SDS011;11478;51.094;7.030;2022-09-29T11:25:20;7.72;;;5.53;;
22622;SDS011;11478;51.094;7.030;2022-09-29T11:36:44;9.95;;;6.03;;
22622;SDS011;11478;51.094;7.030;2022-09-29T11:42:24;7.78;;;4.63;;
22622;SDS011;11478;51.094;7.030;2022-09-29T11:45:10;10.52;;;4.55;;
22622;SDS011;11478;51.094;7.030;2022-09-29T11:56:59;7.70;;;4.43;;
22622;SDS011;11478;51.094;7.030;2022-09-29T12:02:37;5.43;;;3.20;;
22622;SDS011;11478;51.094;7.030;2022-09-29T12:05:28;8.25;;;3.13;;
22622;SDS011;11478;51.094;7.030;2022-09-29T12:14:11;4.55;;;3.20;;
22622;SDS011;11478;51.094;7.030;2022-09-29T12:17:12;7.65;;;3.53;;
22622;SDS011;11478;51.094;7.030;2022-09-29T12:19:53;6.38;;;3.92;;
22622;SDS011;11478;51.094;7.030;2022-09-29T12:22:26;6.70;;;3.90;;
22622;SDS011;11478;51.094;7.030;2022-09-29T12:24:54;5.47;;;3.75;;
22622;SDS011;11478;51.094;7.030;2022-09-29T12:30:05;6.03;;;3.40;;
22622;SDS011;11478;51.094;7.030;2022-09-29T12:32:48;4.75;;;3.30;;
22622;SDS011;11478;51.094;7.030;2022-09-29T12:35:24;7.10;;;4.00;;
22622;SDS011;11478;51.094;7.030;2022-09-29T12:38:11;6.55;;;3.55;;
22622;SDS011;11478;51.094;7.030;2022-09-29T12:40:42;6.00;;;3.38;;
22622;SDS011;11478;51.094;7.030;2022-09-29T12:43:18;5.13;;;3.15;;
22622;SDS011;11478;51.094;7.030;2022-09-29T12:46:31;4.82;;;2.92;;
22622;SDS011;11478;51.094;7.030;2022-09-29T12:49:07;8.50;;;3.92;;
22622;SDS011;11478;51.094;7.030;2022-09-29T12:51:53;6.72;;;3.60;;
22622;SDS011;11478;51.094;7.030;2022-09-29T12:54:57;4.90;;;3.10;;
22622;SDS011;11478;51.094;7.030;2022-09-29T12:57:24;6.47;;;3.25;;
22622;SDS011;11478;51.094;7.030;2022-09-29T13:08:36;10.55;;;2.58;;
22622;SDS011;11478;51.094;7.030;2022-09-29T13:14:43;5.50;;;2.88;;
22622;SDS011;11478;51.094;7.030;2022-09-29T13:28:50;4.90;;;2.35;;
22622;SDS011;11478;51.094;7.030;2022-09-29T13:31:20;4.95;;;2.33;;
22622;SDS011;11478;51.094;7.030;2022-09-29T13:33:52;4.55;;;2.30;;
22622;SDS011;11478;51.094;7.030;2022-09-29T13:36:30;4.45;;;2.30;;
22622;SDS011;11478;51.094;7.030;2022-09-29T13:39:02;2.83;;;2.10;;
22622;SDS011;11478;51.094;7.030;2022-09-29T13:44:04;5.30;;;2.25;;
22622;SDS011;11478;51.094;7.030;2022-09-29T13:46:43;4.25;;;2.00;;
22622;SDS011;11478;51.094;7.030;2022-09-29T13:54:18;4.45;;;1.92;;
22622;SDS011;11478;51.094;7.030;2022-09-29T13:56:49;6.28;;;1.90;;
22622;SDS011;11478;51.094;7.030;2022-09-29T13:59:21;7.00;;;2.15;;
22622;SDS011;11478;51.094;7.030;2022-09-29T14:01:48;5.43;;;1.77;;
22622;SDS011;11478;51.094;7.030;2022-09-29T14:07:09;3.60;;;1.90;;
22622;SDS011;11478;51.094;7.030;2022-09-29T14:09:43;6.97;;;1.92;;
22622;SDS011;11478;51.094;7.030;2022-09-29T14:12:22;8.95;;;2.58;;
22622;SDS011;11478;51.094;7.030;2022-09-29T14:14:52;4.65;;;2.00;;
22622;SDS011;11478;51.094;7.030;2022-09-29T14:17:23;7.73;;;2.53;;
22622;SDS011;11478;51.094;7.030;2022-09-29T14:28:08;5.97;;;2.50;;
22622;SDS011;11478;51.094;7.030;2022-09-29T14:31:37;7.95;;;2.20;;
22622;SDS011;11478;51.094;7.030;2022-09-29T14:34:07;2.88;;;2.03;;
22622;SDS011;11478;51.094;7.030;2022-09-29T14:36:47;5.03;;;2.60;;
22622;SDS011;11478;51.094;7.030;2022-09-29T14:39:15;4.95;;;2.25;;
22622;SDS011;11478;51.094;7.030;2022-09-29T14:41:43;4.43;;;2.30;;
22622;SDS011;11478;51.094;7.030;2022-09-29T14:44:18;3.85;;;2.40;;
22622;SDS011;11478;51.094;7.030;2022-09-29T14:56:25;5.18;;;2.40;;
22622;SDS011;11478;51.094;7.030;2022-09-29T15:04:43;5.00;;;2.17;;
22622;SDS011;11478;51.094;7.030;2022-09-29T15:07:10;4.47;;;2.10;;
22622;SDS011;11478;51.094;7.030;2022-09-29T15:09:43;4.63;;;2.33;;
22622;SDS011;11478;51.094;7.030;2022-09-29T15:12:15;7.65;;;2.60;;
22622;SDS011;11478;51.094;7.030;2022-09-29T15:14:46;5.55;;;2.42;;
22622;SDS011;11478;51.094;7.030;2022-09-29T15:25:29;4.65;;;1.95;;
22622;SDS011;11478;51.094;7.030;2022-09-29T15:28:10;5.75;;;2.08;;
22622;SDS011;11478;51.094;7.030;2022-09-29T15:30:40;6.95;;;2.20;;
22622;SDS011;11478;51.094;7.030;2022-09-29T15:33:22;4.53;;;1.65;;
22622;SDS011;11478;51.094;7.030;2022-09-29T15:35:56;1.60;;;1.38;;
22622;SDS011;11478;51.094;7.030;2022-09-29T15:38:38;6.72;;;1.95;;
22622;SDS011;11478;51.094;7.030;2022-09-29T15:41:15;4.32;;;1.88;;
22622;SDS011;11478;51.094;7.030;2022-09-29T15:51:34;3.85;;;2.13;;
22622;SDS011;11478;51.094;7.030;2022-09-29T15:54:04;3.72;;;2.20;;
22622;SDS011;11478;51.094;7.030;2022-09-29T15:59:41;4.30;;;2.78;;
22622;SDS011;11478;51.094;7.030;2022-09-29T16:02:26;4.97;;;2.50;;
22622;SDS011;11478;51.094;7.030;2022-09-29T16:05:11;9.90;;;2.90;;
22622;SDS011;11478;51.094;7.030;2022-09-29T16:07:49;4.35;;;2.40;;
22622;SDS011;11478;51.094;7.030;2022-09-29T16:10:22;4.43;;;2.67;;
22622;SDS011;11478;51.094;7.030;2022-09-29T16:21:08;5.47;;;2.92;;
22622;SDS011;11478;51.094;7.030;2022-09-29T16:23:39;6.85;;;2.95;;
22622;SDS011;11478;51.094;7.030;2022-09-29T16:29:01;3.78;;;3.00;;
22622;SDS011;11478;51.094;7.030;2022-09-29T16:31:33;10.48;;;3.15;;
22622;SDS011;11478;51.094;7.030;2022-09-29T16:34:00;8.38;;;2.95;;
22622;SDS011;11478;51.094;7.030;2022-09-29T16:36:29;5.25;;;3.22;;
22622;SDS011;11478;51.094;7.030;2022-09-29T16:41:34;5.95;;;2.90;;
22622;SDS011;11478;51.094;7.030;2022-09-29T16:54:26;6.57;;;3.30;;
22622;SDS011;11478;51.094;7.030;2022-09-29T17:00:08;8.23;;;4.30;;
22622;SDS011;11478;51.094;7.030;2022-09-29T17:02:36;7.15;;;3.40;;
22622;SDS011;11478;51.094;7.030;2022-09-29T17:05:02;7.32;;;3.75;;
22622;SDS011;11478;51.094;7.030;2022-09-29T17:07:29;6.15;;;3.83;;
22622;SDS011;11478;51.094;7.030;2022-09-29T17:09:57;7.05;;;3.67;;
22622;SDS011;11478;51.094;7.030;2022-09-29T17:12:24;5.20;;;3.38;;
22622;SDS011;11478;51.094;7.030;2022-09-29T17:14:52;5.88;;;3.30;;
22622;SDS011;11478;51.094;7.030;2022-09-29T17:17:19;5.65;;;3.40;;
22622;SDS011;11478;51.094;7.030;2022-09-29T17:19:50;9.00;;;3.47;;
22622;SDS011;11478;51.094;7.030;2022-09-29T17:22:33;7.25;;;3.88;;
22622;SDS011;11478;51.094;7.030;2022-09-29T17:25:01;4.85;;;3.83;;
22622;SDS011;11478;51.094;7.030;2022-09-29T17:27:31;5.30;;;3.97;;
22622;SDS011;11478;51.094;7.030;2022-09-29T17:30:17;6.90;;;3.85;;
22622;SDS011;11478;51.094;7.030;2022-09-29T17:32:47;6.68;;;4.40;;
22622;SDS011;11478;51.094;7.030;2022-09-29T17:35:18;8.98;;;4.03;;
22622;SDS011;11478;51.094;7.030;2022-09-29T17:37:46;6.65;;;3.97;;
22622;SDS011;11478;51.094;7.030;2022-09-29T17:40:16;7.15;;;3.90;;
22622;SDS011;11478;51.094;7.030;2022-09-29T17:42:51;7.25;;;4.60;;
22622;SDS011;11478;51.094;7.030;2022-09-29T17:45:19;6.90;;;4.18;;
22622;SDS011;11478;51.094;7.030;2022-09-29T17:47:45;4.97;;;3.75;;
22622;SDS011;11478;51.094;7.030;2022-09-29T17:50:23;9.70;;;3.92;;
22622;SDS011;11478;51.094;7.030;2022-09-29T17:52:55;7.55;;;3.90;;
22622;SDS011;11478;51.094;7.030;2022-09-29T17:55:27;8.00;;;3.70;;
22622;SDS011;11478;51.094;7.030;2022-09-29T17:58:05;7.38;;;4.10;;
22622;SDS011;11478;51.094;7.030;2022-09-29T18:00:33;9.70;;;3.97;;
22622;SDS011;11478;51.094;7.030;2022-09-29T18:03:04;7.15;;;4.15;;
22622;SDS011;11478;51.094;7.030;2022-09-29T18:05:34;8.35;;;4.43;;
22622;SDS011;11478;51.094;7.030;2022-09-29T18:08:02;6.55;;;3.88;;
22622;SDS011;11478;51.094;7.030;2022-09-29T18:13:04;8.35;;;4.13;;
22622;SDS011;11478;51.094;7.030;2022-09-29T18:22:15;5.72;;;4.15;;
22622;SDS011;11478;51.094;7.030;2022-09-29T18:24:47;9.57;;;4.28;;
22622;SDS011;11478;51.094;7.030;2022-09-29T18:27:13;4.88;;;3.88;;
22622;SDS011;11478;51.094;7.030;2022-09-29T18:29:39;9.43;;;4.70;;
22622;SDS011;11478;51.094;7.030;2022-09-29T18:32:05;8.18;;;4.78;;
22622;SDS011;11478;51.094;7.030;2022-09-29T18:34:30;6.93;;;4.65;;
22622;SDS011;11478;51.094;7.030;2022-09-29T18:36:57;8.00;;;5.00;;
22622;SDS011;11478;51.094;7.030;2022-09-29T18:39:24;5.63;;;5.00;;
22622;SDS011;11478;51.094;7.030;2022-09-29T18:41:49;7.30;;;5.03;;
22622;SDS011;11478;51.094;7.030;2022-09-29T18:44:16;10.05;;;4.90;;
22622;SDS011;11478;51.094;7.030;2022-09-29T18:46:57;11.35;;;5.45;;
22622;SDS011;11478;51.094;7.030;2022-09-29T18:49:23;10.15;;;5.60;;
22622;SDS011;11478;51.094;7.030;2022-09-29T18:51:49;11.25;;;5.63;;
22622;SDS011;11478;51.094;7.030;2022-09-29T18:54:17;11.55;;;5.95;;
22622;SDS011;11478;51.094;7.030;2022-09-29T18:56:43;10.52;;;6.18;;
22622;SDS011;11478;51.094;7.030;2022-09-29T18:59:12;7.93;;;6.53;;
22622;SDS011;11478;51.094;7.030;2022-09-29T19:01:38;9.48;;;6.53;;
22622;SDS011;11478;51.094;7.030;2022-09-29T19:04:05;14.70;;;7.82;;
22622;SDS011;11478;51.094;7.030;2022-09-29T19:06:30;12.85;;;7.07;;
22622;SDS011;11478;51.094;7.030;2022-09-29T19:08:56;14.32;;;8.00;;
22622;SDS011;11478;51.094;7.030;2022-09-29T19:11:23;13.63;;;7.22;;
22622;SDS011;11478;51.094;7.030;2022-09-29T19:14:03;13.23;;;7.57;;
22622;SDS011;11478;51.094;7.030;2022-09-29T19:16:29;9.98;;;7.03;;
22622;SDS011;11478;51.094;7.030;2022-09-29T19:19:01;14.27;;;7.55;;